Flight Track Log - Related Links

Times and Time Zones

All times are in EDT time to prevent confusion due to time zone crossing. See the TCF3487 flight status page for this flight to view local times or setup timezone preferences in your user account.

Time Position Orientation Groundspeed Altitude Reporting Facility
EDT Latitude Longitude Course Direction KTS MPH feet Rate Location/Type
Tue 11:00:47 PM 41.9500 -87.9000 194° South 147 169 1,700  Level Chicago TRACON
Tue 11:01:47 PM 41.9000 -87.9500 217° Southwest 197 227 3,100 1,975 Climbing Chicago TRACON
Tue 11:03:00 PM 41.5229 -88.0117 189° South  Level Estimated
Tue 11:03:28 PM 41.8158 -87.9994 204° Southwest 261 300 7,000  Level Chicago Center
Tue 11:04:00 PM 41.4082 -88.0378 194° South  Level Estimated
Tue 11:04:30 PM 41.7367 -87.9981 179° South 285 328 9,900  Level Chicago Center
Tue 11:05:00 PM 41.2935 -88.0637 191° South  Level Estimated
Tue 11:05:31 PM 41.6378 -88.0081 184° South 297 342 13,300  Level Chicago Center
Tue 11:06:00 PM 41.1788 -88.0895 194° South  Level Estimated
Tue 11:06:32 PM 41.5489 -88.0164 184° South 324 373 14,800  Level Chicago Center
Tue 11:07:33 PM 41.4594 -88.0356 189° South 348 400 17,000 2,049 Climbing Chicago Center
Tue 11:08:35 PM 41.3444 -88.0633 190° South 359 413 19,000 1,902 Climbing Chicago Center
Tue 11:09:36 PM 41.2431 -88.0886 191° South 368 423 20,900 1,770 Climbing Chicago Center
Tue 11:10:37 PM 41.1369 -88.1150 191° South 383 441 22,600 1,721 Climbing Chicago Center
Tue 11:11:38 PM 41.0283 -88.1425 191° South 398 458 24,400 1,672 Climbing Chicago Center
Tue 11:12:39 PM 40.9181 -88.1692 190° South 402 463 26,000 1,463 Climbing Chicago Center
Tue 11:13:41 PM 40.8044 -88.1972 191° South 414 476 27,400 1,268 Climbing Chicago Center
Tue 11:14:42 PM 40.6883 -88.2253 190° South 423 487 28,600 1,131 Climbing Chicago Center
Tue 11:15:43 PM 40.5711 -88.2536 190° South 429 494 29,700 1,328 Climbing Chicago Center
Tue 11:16:44 PM 40.4292 -88.2883 191° South 434 499 31,300 1,561 Climbing Chicago Center
Tue 11:17:46 PM 40.3136 -88.3167 191° South 429 494 32,900 1,317 Climbing Chicago Center
Tue 11:18:47 PM 40.1989 -88.3439 190° South 422 486 34,000 541 Climbing Chicago Center
Tue 11:19:48 PM 40.0892 -88.3708 191° South 421 484 34,000  Level Chicago Center
Tue 11:20:49 PM 39.9706 -88.3994 190° South 431 496 34,000  Level Chicago Center
Tue 11:21:50 PM 39.8508 -88.4272 190° South 435 501 34,000  Level Chicago Center
Tue 11:22:48 PM 39.7319 -88.4556 190° South 435 501 34,000  Level Kansas City Center
Tue 11:23:52 PM 39.6194 -88.4831 191° South 437 503 34,000  Level Kansas City Center
Tue 11:24:52 PM 39.4753 -88.5181 191° South 438 504 34,000  Level Kansas City Center
Tue 11:25:52 PM 39.3553 -88.5464 190° South 438 504 34,000  Level Kansas City Center
Tue 11:26:53 PM 39.2356 -88.5747 190° South 436 502 34,000  Level Kansas City Center
Tue 11:27:53 PM 39.1164 -88.6028 190° South 436 502 34,000  Level Kansas City Center
Tue 11:28:54 PM 39.0119 -88.6269 190° South 434 499 34,000  Level Kansas City Center
Tue 11:29:56 PM 38.8919 -88.6550 190° South 436 502 34,000  Level Kansas City Center
Tue 11:30:58 PM 38.7725 -88.6831 190° South 436 502 34,000  Level Kansas City Center
Tue 11:31:58 PM 38.6306 -88.7153 190° South 432 497 34,000  Level Kansas City Center
Tue 11:32:59 PM 38.5078 -88.7436 190° South 438 504 34,000  Level Kansas City Center
Tue 11:34:00 PM 38.3878 -88.7714 190° South 438 504 34,000  Level Kansas City Center
Tue 11:35:03 PM 38.2708 -88.7972 190° South 433 498 34,000  Level Kansas City Center
Tue 11:36:03 PM 38.1508 -88.8250 190° South 433 498 34,000  Level Kansas City Center
Tue 11:37:05 PM 38.0311 -88.8517 190° South 435 501 34,000  Level Kansas City Center
Tue 11:38:04 PM 37.9108 -88.8797 190° South 437 503 34,000  Level Kansas City Center
Tue 11:39:08 PM 37.7892 -88.9067 190° South 433 498 34,000  Level Kansas City Center
Tue 11:40:09 PM 37.6694 -88.9328 190° South 434 499 34,000  Level Kansas City Center
Tue 11:41:07 PM 37.5503 -88.9597 190° South 434 499 34,000  Level Kansas City Center
Tue 11:42:10 PM 37.4308 -88.9878 191° South 436 502 34,000  Level Kansas City Center
Tue 11:42:50 PM 37.3350 -89.0161 193° South 448 516 34,000  Level Memphis Center
Tue 11:43:50 PM 37.2144 -89.0389 189° South 443 510 34,000  Level Memphis Center
Tue 11:44:50 PM 37.0958 -89.0644 190° South 443 510 34,000  Level Memphis Center
Tue 11:45:50 PM 36.9753 -89.0922 190° South 443 510 34,000  Level Memphis Center
Tue 11:46:50 PM 36.8589 -89.1175 190° South 443 510 34,000  Level Memphis Center
Tue 11:47:51 PM 36.7383 -89.1453 190° South 443 510 34,000  Level Memphis Center
Tue 11:48:50 PM 36.6239 -89.1675 189° South 443 510 34,000  Level Memphis Center
Tue 11:49:50 PM 36.5033 -89.1900 189° South 438 504 34,000  Level Memphis Center
Tue 11:50:50 PM 36.4033 -89.2069 188° South 443 510 34,000  Level Memphis Center
Tue 11:51:50 PM 36.2619 -89.2400 191° South 458 527 34,000  Level Memphis Center
Tue 11:52:50 PM 36.1475 -89.2697 192° South 452 520 34,000  Level Memphis Center
Tue 11:53:50 PM 36.0289 -89.2969 191° South 446 513 34,000  Level Memphis Center
Tue 11:54:50 PM 35.9103 -89.3217 190° South 440 506 34,000  Level Memphis Center
Tue 11:55:50 PM 35.7894 -89.3486 190° South 440 506 34,000  Level Memphis Center
Tue 11:56:50 PM 35.6625 -89.3758 190° South 435 501 34,000  Level Memphis Center
Tue 11:57:50 PM 35.5417 -89.4003 189° South 435 501 34,000  Level Memphis Center
Tue 11:58:50 PM 35.4314 -89.4244 190° South 435 501 34,000  Level Memphis Center
Tue 11:59:50 PM 35.3128 -89.4486 189° South 445 512 34,000  Level Memphis Center
Wed 12:00:50 AM 35.1919 -89.4703 188° South 446 513 34,000  Level Memphis Center
Wed 12:01:50 AM 35.0669 -89.4969 190° South 446 513 34,000  Level Memphis Center
Wed 12:02:50 AM 34.9336 -89.5211 188° South 446 513 34,000  Level Memphis Center
Wed 12:03:50 AM 34.8044 -89.5503 191° South 451 519 34,000  Level Memphis Center
Wed 12:04:50 AM 34.6772 -89.5767 190° South 463 533 34,000  Level Memphis Center
Wed 12:05:50 AM 34.5544 -89.6056 191° South 468 539 34,000  Level Memphis Center
Wed 12:06:50 AM 34.4314 -89.6344 191° South 460 529 34,000  Level Memphis Center
Wed 12:07:50 AM 34.3189 -89.6556 189° South 460 529 34,000  Level Memphis Center
Wed 12:08:51 AM 34.1958 -89.6817 190° South 460 529 34,000  Level Memphis Center
Wed 12:09:50 AM 34.0708 -89.7078 190° South 460 529 34,000  Level Memphis Center
Wed 12:10:50 AM 33.9436 -89.7336 190° South 466 536 34,000  Level Memphis Center
Wed 12:11:50 AM 33.8103 -89.7622 190° South 466 536 34,000  Level Memphis Center
Wed 12:12:50 AM 33.6831 -89.7906 190° South 461 531 34,000  Level Memphis Center
Wed 12:13:50 AM 33.5558 -89.8164 190° South 466 536 34,000  Level Memphis Center
Wed 12:14:50 AM 33.4286 -89.8419 190° South 466 536 34,000  Level Memphis Center
Wed 12:15:50 AM 33.2992 -89.8675 189° South 466 536 34,000  Level Memphis Center
Wed 12:16:50 AM 33.1761 -89.8931 190° South 466 536 34,000  Level Memphis Center
Wed 12:17:50 AM 33.0469 -89.9186 189° South 466 536 34,000  Level Memphis Center
Wed 12:18:50 AM 32.9114 -89.9392 187° South 483 556 34,000  Level Memphis Center
Wed 12:19:50 AM 32.7967 -89.9692 192° South 483 556 34,000  Level Memphis Center
Wed 12:20:50 AM 32.6650 -89.9944 189° South 483 556 34,000  Level Memphis Center
Wed 12:22:40 AM 32.4419 -90.0353 189° South 476 548 34,000  Level Houston Center
Wed 12:23:41 AM 32.3089 -90.0622 190° South 470 541 34,000 -99 Level Houston Center
Wed 12:24:41 AM 32.1797 -90.0869 189° South 471 542 33,800 -595 Descending Houston Center
Wed 12:25:42 AM 32.0494 -90.1139 190° South 476 548 32,800 -1,140 Descending Houston Center
Wed 12:26:42 AM 31.9203 -90.1400 190° South 473 544 31,500 -2,132 Descending Houston Center
Wed 12:27:43 AM 31.7661 -90.1683 189° South 468 539 28,500 -1,736 Descending Houston Center
Wed 12:28:43 AM 31.6419 -90.1925 189° South 456 525 28,000 -248 Descending Houston Center
Wed 12:29:44 AM 31.5178 -90.2178 190° South 453 521 28,000  Level Houston Center
Wed 12:30:44 AM 31.3914 -90.2247 183° South 458 527 28,000 -496 Level Houston Center
Wed 12:31:45 AM 31.2647 -90.2281 181° South 456 525 27,000 -1,041 Descending Houston Center
Wed 12:32:45 AM 31.1417 -90.2306 181° South 447 514 25,900 -992 Descending Houston Center
Wed 12:33:46 AM 31.0217 -90.2342 181° South 436 502 25,000 -1,421 Descending Houston Center
Wed 12:34:39 AM 30.9136 -90.2353 181° South 431 496 23,200 -2,225 Descending Houston Center
Wed 12:35:15 AM 30.8406 -90.2383 182° South 424 488 21,700 -2,294 Descending Houston Center
Wed 12:35:47 AM 30.7881 -90.2397 181° South 418 481 20,600 -2,152 Descending Houston Center
Wed 12:36:47 AM 30.6806 -90.2517 185° South 395 455 18,400 -2,300 Descending Houston Center
Wed 12:37:47 AM 30.5772 -90.2753 191° South 383 441 16,000 -2,529 Descending Houston Center
Wed 12:38:48 AM 30.4783 -90.2978 191° South 370 426 13,300 -2,430 Descending Houston Center
Wed 12:39:48 AM 30.3892 -90.3181 191° South 335 386 11,100 -2,182 Descending Houston Center
Wed 12:40:49 AM 30.3106 -90.3358 191° South 298 343 8,900 -2,182 Descending Houston Center
Wed 12:41:49 AM 30.2392 -90.3622 198° South 284 327 6,700 -1,900 Descending Houston Center
Wed 12:42:49 AM 30.1864 -90.4253 226° Southwest 279 321 5,100 -1,736 Descending Houston Center
Wed 12:43:50 AM 30.1264 -90.4444 195° South 265 305 3,200 -1,438 Descending Houston Center
Wed 12:44:50 AM 30.0742 -90.4481 183° South 222 255 2,200 -645 Descending Houston Center
Wed 12:45:51 AM 30.0289 -90.4125 146° Southeast 184 212 1,900 -446 Descending Houston Center
Wed 12:46:51 AM 30.0167 -90.3650 107° East 166 191 1,300 -593 Descending Houston Center
Wed 12:47:22 AM 30.0122 -90.3436 103° East 149 171 1,000 -581 Descending Houston Center

Login

Don't have an account? Register now (free) for customized features, flight alerts, and more!